Campbell Hall, New York
Current Conditions -  °F | °C
As of 2:12 AM on Thursday 23 Oct 2014 (Local Time) from KMGJ Reporting Station
Light Rain Light Rain  
Wind Chill: 50°   Ceiling: 2300
Heat Index: 50°   Visibility: 10mi
Dew Point: 47°   Wind: 13mph
Humidity: 89%   Direction: 30°NNE
Pressure: 29.79"   Gusts: NA
Location:  41.46°N, 74.26°W
Report Text: KMGJ 230612Z AUTO 03011KT 10SM -RA BKN023 BKN028 OVC060 10/08 A2979 RMK AO2 P0001 T01000083 TSNO
Loading
Personal Weather Stations






























Interactive Weather Map
Tropical Storm Tracking
New forecast layout! Learn more

10-Day Weather Forecast

Advertisements
Track Severe Weather on mobile